Decoded Metar for USRR (SURGUT in RUSSIA) (IATA:SGC) | Meteo·Mobile Aviation Weather
aviador You're here:

USRR Decoded Metar

SURGUT in RUSSIA
Report Time2018-08-20 18:30:00
UTC Time2018-08-20 18:43:13
Flight Rules vfr VFR
Wind050° at 4 kt
W.Decomp.*RWY 07: 3.2 kt HW 2.4 kt LCW
W.Rank050° ranks 32
Current wind is below 050° avg. (6.6)
Visibility9999 m
Phenomena:N/A
Clouds:N/A
CeilingNone
Temp08°C (ISA -7)
Dew Point08°C (100% RH)
AAT6.1°C
QNH1012 hPa
Density Alt-482 ft
Elevation144 ft
Report Wrong Elevation
Raw Report
USRR 201830Z 05002MPS 030V090 CAVOK 08/08 Q1012 R07/CLRD60 NOSIG
RMK QFE754=

Extra information for USRR:More info

Metar Taf Metar & Taf Last 4 Metars F.Rules Stats Wind Profile Meteogram Temp Stats Airport Information Weather charts Add Link Nearby VenuesMetar ALERT Operation Metar Decoded Social comments